Nearby METAR Reports

 

KLXT - Lees Summit Muni, Missouri, USA
Distance from station: E 5mi, 9km
Updated: Sat, 25-Jun-2016 10:53pm CDT
Clear
Clear
 Wind from S
Wind: S 10 mph , 17 km/h
Temperature: 84°F , 29°C
Heat Index: 88°F , 31°C
Dew Point: 70°F , 21°C
Humidity: 62%
Barometer: 30.01 inHg , 1016.3 hPa
Clouds: Clear
Visibility: 10 miles , 16 km
2016/06/26 03:53 KLXT 260353Z AUTO 17009KT 10SM CLR 29/21 A3001 RMK AO2 SLP148 T02890211
KMKC - Kansas City/Dntn, Missouri, USA
Distance from station: NW 12mi, 19km
Updated: Sat, 25-Jun-2016 10:54pm CDT
Clear
Clear
 Wind from S
Wind: S 12 mph , 19 km/h
Temperature: 86°F , 30°C
Heat Index: 91°F , 33°C
Dew Point: 70°F , 21°C
Humidity: 59%
Barometer: 29.97 inHg , 1014.9 hPa
Clouds: Clear
Visibility: 10 miles , 16 km
2016/06/26 03:54 KMKC 260354Z 18010KT 10SM CLR 30/21 A2997 RMK AO2 SLP138 T03000206 $
 
KIXD - Olathe/Industria, Kansas, USA
Distance from station: WSW 25mi, 41km
Updated: Sat, 25-Jun-2016 10:53pm CDT
Clear
Clear
 Wind from SSE
Wind: SSE 7 mph , 11 km/h
Temperature: 79°F , 26°C
Dew Point: 70°F , 21°C
Humidity: 74%
Barometer: 30.01 inHg , 1016.3 hPa
Clouds: Clear
Visibility: 10 miles , 16 km
2016/06/26 03:53 KIXD 260353Z AUTO 16006KT 10SM CLR 26/21 A3001 RMK AO2 SLP147 T02610206
KMCI - Kansas City/Intl, Missouri, USA
Distance from station: NW 26mi, 42km
Updated: Sat, 25-Jun-2016 10:53pm CDT
Clear
Clear
 Wind from S
Wind: S 8 mph , 13 km/h
Temperature: 81°F , 27°C
Heat Index: 84°F , 29°C
Dew Point: 68°F , 20°C
Humidity: 66%
Barometer: 29.99 inHg , 1015.6 hPa
Clouds: Clear
Visibility: 10 miles , 16 km
2016/06/26 03:53 KMCI 260353Z 18007KT 10SM CLR 27/20 A2999 RMK AO2 SLP142 T02670200
 
KRCM - Warrensburg Skyh, Missouri, USA
Distance from station: ESE 38mi, 62km
Updated: Tue, 21-Jun-2016 10:55am CDT
NOT Current
Partly cloudy
Partly cloudy
 Wind from SE
Wind: SE 13 mph , 20 km/h, Gust: 16 mph , 26 km/h
Temperature: 77°F , 25°C
Dew Point: 70°F , 21°C
Humidity: 79%
Barometer: 30.12 inHg , 1020 hPa
Clouds: Partly cloudy
Visibility: 10 miles , 16 km
Cloud details: Partly cloudy 7500 ft
2016/06/21 15:55 KRCM 211555Z AUTO 13011G14KT 10SM SCT075 25/21 A3012 RMK AO2
KLWC - Lawrence, Kansas, USA
Distance from station: W 40mi, 65km
Updated: Sat, 25-Jun-2016 10:52pm CDT
Clear
Clear
 Wind from ESE
Wind: ESE 7 mph , 11 km/h
Temperature: 81°F , 27°C
Heat Index: 85°F , 29°C
Dew Point: 70°F , 21°C
Humidity: 70%
Barometer: 29.98 inHg , 1015.2 hPa
Clouds: Clear
Visibility: 10 miles , 16 km
2016/06/26 03:52 KLWC 260352Z AUTO 12006KT 10SM CLR 27/21 A2998 RMK AO2 SLP142 T02670211
 
KSZL - Whiteman Afb, Missouri, USA
Distance from station: ESE 53mi, 86km
Updated: Sat, 25-Jun-2016 10:58pm CDT
Clear
Clear
 Wind from S
Wind: S 5 mph , 7 km/h
Temperature: 79°F , 26°C
Dew Point: 72°F , 22°C
Humidity: 79%
Barometer: 30.01 inHg , 1016.3 hPa
Clouds: Clear
Visibility: 10 miles , 16 km
2016/06/26 03:58 KSZL 260358Z AUTO 18004KT 10SM CLR 26/22 A3001 RMK AO2 SLP156 T02570221 $
KSTJ - St. Joseph, Missouri, USA
Distance from station: NNW 59mi, 95km
Updated: Sat, 25-Jun-2016 10:53pm CDT
Clear
Clear
 Wind from S
Wind: S 9 mph , 15 km/h
Temperature: 82°F , 28°C
Heat Index: 86°F , 30°C
Dew Point: 70°F , 21°C
Humidity: 66%
Barometer: 29.96 inHg , 1014.6 hPa
Clouds: Clear
Visibility: 10 miles , 16 km
2016/06/26 03:53 KSTJ 260353Z AUTO 18008KT 10SM CLR 28/21 A2996 RMK AO2 SLP135 T02830206
 
KGLY - Clinton, Missouri, USA
Distance from station: SE 61mi, 98km
Updated: Sat, 25-Jun-2016 11:35pm CDT
Clear
Clear
 Wind from calm
Wind: Calm
Temperature: 79°F , 26°C
Dew Point: 70°F , 21°C
Humidity: 74%
Barometer: 30.02 inHg , 1016.6 hPa
Clouds: Clear
Visibility: 10 miles , 16 km
2016/06/26 04:35 KGLY 260435Z AUTO 00000KT 10SM CLR 26/21 A3002 RMK AO2
KFOE - Topeka/Forbes, Kansas, USA
Distance from station: W 64mi, 103km
Updated: Sat, 25-Jun-2016 10:53pm CDT
Clear
Clear
 Wind from SSE
Wind: SSE 6 mph , 9 km/h
Temperature: 82°F , 28°C
Heat Index: 86°F , 30°C
Dew Point: 70°F , 21°C
Humidity: 66%
Barometer: 29.98 inHg , 1015.2 hPa
Clouds: Clear
Visibility: 10 miles , 16 km
2016/06/26 03:53 KFOE 260353Z AUTO 16005KT 10SM CLR 28/21 A2998 RMK AO2 SLP138 T02830211
 
KDMO - Sedalia, Missouri, USA
Distance from station: ESE 72mi, 116km
Updated: Sat, 25-Jun-2016 10:53pm CDT
Clear
Clear
 Wind from S
Wind: S 8 mph , 13 km/h
Temperature: 79°F , 26°C
Dew Point: 70°F , 21°C
Humidity: 74%
Barometer: 30.04 inHg , 1017.3 hPa
Clouds: Clear
Visibility: 10 miles , 16 km
2016/06/26 03:53 KDMO 260353Z AUTO 19007KT 10SM CLR 26/21 A3004 RMK AO2 SLP160 T02610211
KCDJ - Chillicothe, Missouri, USA
Distance from station: NE 74mi, 120km
Updated: Sat, 25-Jun-2016 10:52pm CDT

 Wind from S
Wind: S 6 mph , 9 km/h
Temperature: 82°F , 28°C
Heat Index: 86°F , 30°C
Dew Point: 70°F , 21°C
Humidity: 66%
Barometer: 29.99 inHg , 1015.6 hPa
2016/06/26 03:52 KCDJ 260352Z AUTO 18005KT 28/21 A2999 RMK AO1 SLP138 T02830211
 
KFNB - Falls City/Brenn, Nebraska, USA
Distance from station: NW 96mi, 154km
Updated: Sat, 25-Jun-2016 10:53pm CDT
Clear
Clear
 Wind from S
Wind: S 8 mph , 13 km/h
Temperature: 84°F , 29°C
Heat Index: 89°F , 32°C
Dew Point: 72°F , 22°C
Humidity: 66%
Barometer: 29.94 inHg , 1013.9 hPa
Clouds: Clear
Visibility: 10 miles , 16 km
2016/06/26 03:53 KFNB 260353Z AUTO 17007KT 10SM CLR 29/22 A2994 RMK AO2 SLP125 T02890217 TSNO
KVER - Boonville, Missouri, USA
Distance from station: E 96mi, 154km
Updated: Sat, 25-Jun-2016 11:15pm CDT
Clear
Clear
 Wind from S
Wind: S 3 mph , 6 km/h
Temperature: 81°F , 27°C
Heat Index: 85°F , 29°C
Dew Point: 70°F , 21°C
Humidity: 70%
Barometer: 30.01 inHg , 1016.3 hPa
Clouds: Clear
Visibility: 10 miles , 16 km
2016/06/26 04:15 KVER 260415Z AUTO 17003KT 10SM CLR 27/21 A3001 RMK AO2 T02680206